sensor_id;sensor_type;location;lat;lon;timestamp;P1;durP1;ratioP1;P2;durP2;ratioP2
4274;SDS011;2151;50.988;11.068;2023-04-28T00:01:11;132.57;;;13.10;;
4274;SDS011;2151;50.988;11.068;2023-04-28T00:03:37;130.63;;;12.10;;
4274;SDS011;2151;50.988;11.068;2023-04-28T00:06:04;135.63;;;13.00;;
4274;SDS011;2151;50.988;11.068;2023-04-28T00:08:31;133.50;;;12.40;;
4274;SDS011;2151;50.988;11.068;2023-04-28T00:10:58;133.60;;;13.33;;
4274;SDS011;2151;50.988;11.068;2023-04-28T00:13:25;131.17;;;11.90;;
4274;SDS011;2151;50.988;11.068;2023-04-28T00:15:52;139.57;;;13.27;;
4274;SDS011;2151;50.988;11.068;2023-04-28T00:18:18;135.53;;;13.33;;
4274;SDS011;2151;50.988;11.068;2023-04-28T00:20:45;137.57;;;13.47;;
4274;SDS011;2151;50.988;11.068;2023-04-28T00:23:12;135.60;;;12.37;;
4274;SDS011;2151;50.988;11.068;2023-04-28T00:25:38;134.30;;;12.80;;
4274;SDS011;2151;50.988;11.068;2023-04-28T00:28:04;135.50;;;13.50;;
4274;SDS011;2151;50.988;11.068;2023-04-28T00:30:31;131.47;;;12.93;;
4274;SDS011;2151;50.988;11.068;2023-04-28T00:32:57;137.07;;;13.37;;
4274;SDS011;2151;50.988;11.068;2023-04-28T00:35:24;133.43;;;13.10;;
4274;SDS011;2151;50.988;11.068;2023-04-28T00:37:50;134.50;;;12.80;;
4274;SDS011;2151;50.988;11.068;2023-04-28T00:40:16;133.90;;;13.93;;
4274;SDS011;2151;50.988;11.068;2023-04-28T00:42:43;132.57;;;12.77;;
4274;SDS011;2151;50.988;11.068;2023-04-28T00:45:09;133.97;;;13.70;;
4274;SDS011;2151;50.988;11.068;2023-04-28T00:47:36;134.87;;;13.60;;
4274;SDS011;2151;50.988;11.068;2023-04-28T00:50:03;134.57;;;12.93;;
4274;SDS011;2151;50.988;11.068;2023-04-28T00:52:33;132.13;;;12.00;;
4274;SDS011;2151;50.988;11.068;2023-04-28T00:54:59;134.10;;;12.23;;
4274;SDS011;2151;50.988;11.068;2023-04-28T00:57:26;131.83;;;13.00;;
4274;SDS011;2151;50.988;11.068;2023-04-28T00:59:52;130.97;;;12.70;;
4274;SDS011;2151;50.988;11.068;2023-04-28T01:02:19;129.97;;;12.00;;
4274;SDS011;2151;50.988;11.068;2023-04-28T01:04:45;132.50;;;12.10;;
4274;SDS011;2151;50.988;11.068;2023-04-28T01:07:12;131.30;;;12.27;;
4274;SDS011;2151;50.988;11.068;2023-04-28T01:09:39;132.27;;;12.63;;
4274;SDS011;2151;50.988;11.068;2023-04-28T01:12:05;135.10;;;12.60;;
4274;SDS011;2151;50.988;11.068;2023-04-28T01:14:32;130.80;;;12.47;;
4274;SDS011;2151;50.988;11.068;2023-04-28T01:16:58;139.27;;;13.40;;
4274;SDS011;2151;50.988;11.068;2023-04-28T01:19:25;142.87;;;13.17;;
4274;SDS011;2151;50.988;11.068;2023-04-28T01:21:53;133.57;;;13.13;;
4274;SDS011;2151;50.988;11.068;2023-04-28T01:24:19;134.03;;;13.10;;
4274;SDS011;2151;50.988;11.068;2023-04-28T01:26:46;132.43;;;12.30;;
4274;SDS011;2151;50.988;11.068;2023-04-28T01:29:12;131.23;;;12.53;;
4274;SDS011;2151;50.988;11.068;2023-04-28T01:31:39;141.77;;;12.53;;
4274;SDS011;2151;50.988;11.068;2023-04-28T01:34:06;131.67;;;12.57;;
4274;SDS011;2151;50.988;11.068;2023-04-28T01:36:33;132.97;;;12.00;;
4274;SDS011;2151;50.988;11.068;2023-04-28T01:39:02;131.50;;;12.60;;
4274;SDS011;2151;50.988;11.068;2023-04-28T01:41:29;135.97;;;13.23;;
4274;SDS011;2151;50.988;11.068;2023-04-28T01:43:56;135.47;;;12.60;;
4274;SDS011;2151;50.988;11.068;2023-04-28T01:46:22;136.90;;;13.23;;
4274;SDS011;2151;50.988;11.068;2023-04-28T01:48:49;139.70;;;13.50;;
4274;SDS011;2151;50.988;11.068;2023-04-28T01:51:15;137.60;;;13.40;;
4274;SDS011;2151;50.988;11.068;2023-04-28T01:53:42;132.17;;;13.23;;
4274;SDS011;2151;50.988;11.068;2023-04-28T01:56:08;132.33;;;13.20;;
4274;SDS011;2151;50.988;11.068;2023-04-28T01:58:34;140.77;;;13.83;;
4274;SDS011;2151;50.988;11.068;2023-04-28T02:01:01;140.47;;;13.63;;
4274;SDS011;2151;50.988;11.068;2023-04-28T02:03:27;135.73;;;12.90;;
4274;SDS011;2151;50.988;11.068;2023-04-28T02:05:54;137.60;;;13.80;;
4274;SDS011;2151;50.988;11.068;2023-04-28T02:08:20;139.47;;;14.23;;
4274;SDS011;2151;50.988;11.068;2023-04-28T02:10:47;135.10;;;13.23;;
4274;SDS011;2151;50.988;11.068;2023-04-28T02:13:13;134.10;;;13.67;;
4274;SDS011;2151;50.988;11.068;2023-04-28T02:15:40;139.97;;;13.57;;
4274;SDS011;2151;50.988;11.068;2023-04-28T02:18:07;132.97;;;13.37;;
4274;SDS011;2151;50.988;11.068;2023-04-28T02:20:33;135.50;;;13.33;;
4274;SDS011;2151;50.988;11.068;2023-04-28T02:23:00;140.00;;;15.13;;
4274;SDS011;2151;50.988;11.068;2023-04-28T02:25:26;134.77;;;14.00;;
4274;SDS011;2151;50.988;11.068;2023-04-28T02:27:53;133.10;;;13.70;;
4274;SDS011;2151;50.988;11.068;2023-04-28T02:30:19;136.07;;;13.50;;
4274;SDS011;2151;50.988;11.068;2023-04-28T02:32:46;132.63;;;13.67;;
4274;SDS011;2151;50.988;11.068;2023-04-28T02:35:13;130.77;;;13.10;;
4274;SDS011;2151;50.988;11.068;2023-04-28T02:37:39;134.50;;;14.27;;
4274;SDS011;2151;50.988;11.068;2023-04-28T02:40:06;135.00;;;14.10;;
4274;SDS011;2151;50.988;11.068;2023-04-28T02:42:33;141.90;;;13.93;;
4274;SDS011;2151;50.988;11.068;2023-04-28T02:44:59;138.03;;;13.43;;
4274;SDS011;2151;50.988;11.068;2023-04-28T02:47:26;132.37;;;12.90;;
4274;SDS011;2151;50.988;11.068;2023-04-28T02:49:52;134.07;;;13.80;;
4274;SDS011;2151;50.988;11.068;2023-04-28T02:52:18;133.33;;;12.43;;
4274;SDS011;2151;50.988;11.068;2023-04-28T02:54:45;135.33;;;14.90;;
4274;SDS011;2151;50.988;11.068;2023-04-28T02:57:14;140.73;;;14.27;;
4274;SDS011;2151;50.988;11.068;2023-04-28T02:59:40;133.17;;;13.63;;
4274;SDS011;2151;50.988;11.068;2023-04-28T03:02:07;135.40;;;14.03;;
4274;SDS011;2151;50.988;11.068;2023-04-28T03:04:34;135.10;;;14.30;;
4274;SDS011;2151;50.988;11.068;2023-04-28T03:07:01;131.80;;;13.30;;
4274;SDS011;2151;50.988;11.068;2023-04-28T03:09:27;134.40;;;13.03;;
4274;SDS011;2151;50.988;11.068;2023-04-28T03:11:54;138.27;;;14.63;;
4274;SDS011;2151;50.988;11.068;2023-04-28T03:14:20;133.47;;;14.13;;
4274;SDS011;2151;50.988;11.068;2023-04-28T03:16:46;140.60;;;16.10;;
4274;SDS011;2151;50.988;11.068;2023-04-28T03:19:13;137.20;;;15.13;;
4274;SDS011;2151;50.988;11.068;2023-04-28T03:21:39;138.40;;;14.90;;
4274;SDS011;2151;50.988;11.068;2023-04-28T03:24:06;134.90;;;14.47;;
4274;SDS011;2151;50.988;11.068;2023-04-28T03:26:32;136.30;;;14.23;;
4274;SDS011;2151;50.988;11.068;2023-04-28T03:28:59;134.93;;;15.27;;
4274;SDS011;2151;50.988;11.068;2023-04-28T03:31:25;133.47;;;14.50;;
4274;SDS011;2151;50.988;11.068;2023-04-28T03:33:52;139.40;;;14.07;;
4274;SDS011;2151;50.988;11.068;2023-04-28T03:36:18;138.33;;;15.70;;
4274;SDS011;2151;50.988;11.068;2023-04-28T03:38:44;133.87;;;14.13;;
4274;SDS011;2151;50.988;11.068;2023-04-28T03:41:11;132.27;;;14.10;;
4274;SDS011;2151;50.988;11.068;2023-04-28T03:43:37;139.50;;;14.60;;
4274;SDS011;2151;50.988;11.068;2023-04-28T03:46:04;135.80;;;15.33;;
4274;SDS011;2151;50.988;11.068;2023-04-28T03:48:30;134.70;;;14.23;;
4274;SDS011;2151;50.988;11.068;2023-04-28T03:50:56;135.13;;;14.80;;
4274;SDS011;2151;50.988;11.068;2023-04-28T03:53:23;137.60;;;14.50;;
4274;SDS011;2151;50.988;11.068;2023-04-28T03:55:49;133.37;;;14.57;;
4274;SDS011;2151;50.988;11.068;2023-04-28T03:58:16;141.20;;;15.37;;
4274;SDS011;2151;50.988;11.068;2023-04-28T04:00:42;134.17;;;14.77;;
4274;SDS011;2151;50.988;11.068;2023-04-28T04:03:09;134.60;;;13.90;;
4274;SDS011;2151;50.988;11.068;2023-04-28T04:05:36;136.53;;;14.40;;
4274;SDS011;2151;50.988;11.068;2023-04-28T04:08:04;136.20;;;15.30;;
4274;SDS011;2151;50.988;11.068;2023-04-28T04:10:31;139.10;;;15.83;;
4274;SDS011;2151;50.988;11.068;2023-04-28T04:12:57;136.17;;;15.17;;
4274;SDS011;2151;50.988;11.068;2023-04-28T04:15:23;133.50;;;14.90;;
4274;SDS011;2151;50.988;11.068;2023-04-28T04:17:50;137.17;;;16.03;;
4274;SDS011;2151;50.988;11.068;2023-04-28T04:20:17;137.20;;;14.57;;
4274;SDS011;2151;50.988;11.068;2023-04-28T04:22:44;136.00;;;15.67;;
4274;SDS011;2151;50.988;11.068;2023-04-28T04:25:10;135.47;;;14.50;;
4274;SDS011;2151;50.988;11.068;2023-04-28T04:27:37;132.97;;;14.50;;
4274;SDS011;2151;50.988;11.068;2023-04-28T04:30:03;137.50;;;15.20;;
4274;SDS011;2151;50.988;11.068;2023-04-28T04:32:30;147.00;;;14.80;;
4274;SDS011;2151;50.988;11.068;2023-04-28T04:34:57;138.07;;;14.93;;
4274;SDS011;2151;50.988;11.068;2023-04-28T04:37:23;134.30;;;13.13;;
4274;SDS011;2151;50.988;11.068;2023-04-28T04:39:49;137.43;;;13.63;;
4274;SDS011;2151;50.988;11.068;2023-04-28T04:42:16;138.27;;;14.57;;
4274;SDS011;2151;50.988;11.068;2023-04-28T04:44:51;135.60;;;15.60;;
4274;SDS011;2151;50.988;11.068;2023-04-28T04:47:17;137.57;;;14.20;;
4274;SDS011;2151;50.988;11.068;2023-04-28T04:49:44;136.40;;;13.83;;
4274;SDS011;2151;50.988;11.068;2023-04-28T04:52:10;136.77;;;13.90;;
4274;SDS011;2151;50.988;11.068;2023-04-28T04:54:37;138.87;;;15.50;;
4274;SDS011;2151;50.988;11.068;2023-04-28T04:57:03;134.63;;;14.47;;
4274;SDS011;2151;50.988;11.068;2023-04-28T04:59:34;137.20;;;15.30;;
4274;SDS011;2151;50.988;11.068;2023-04-28T05:02:00;137.30;;;14.47;;
4274;SDS011;2151;50.988;11.068;2023-04-28T05:04:27;136.37;;;14.30;;
4274;SDS011;2151;50.988;11.068;2023-04-28T05:06:54;137.70;;;14.70;;
4274;SDS011;2151;50.988;11.068;2023-04-28T05:09:20;143.73;;;14.80;;
4274;SDS011;2151;50.988;11.068;2023-04-28T05:11:48;137.90;;;15.20;;
4274;SDS011;2151;50.988;11.068;2023-04-28T05:14:14;139.63;;;15.00;;
4274;SDS011;2151;50.988;11.068;2023-04-28T05:16:42;143.53;;;15.20;;
4274;SDS011;2151;50.988;11.068;2023-04-28T05:19:08;137.73;;;14.70;;
4274;SDS011;2151;50.988;11.068;2023-04-28T05:21:35;137.60;;;14.33;;
4274;SDS011;2151;50.988;11.068;2023-04-28T05:24:01;136.60;;;15.37;;
4274;SDS011;2151;50.988;11.068;2023-04-28T05:26:28;143.93;;;15.40;;
4274;SDS011;2151;50.988;11.068;2023-04-28T05:28:54;146.03;;;15.67;;
4274;SDS011;2151;50.988;11.068;2023-04-28T05:31:20;140.23;;;15.20;;
4274;SDS011;2151;50.988;11.068;2023-04-28T05:33:47;139.13;;;14.57;;
4274;SDS011;2151;50.988;11.068;2023-04-28T05:36:13;141.53;;;14.83;;
4274;SDS011;2151;50.988;11.068;2023-04-28T05:38:45;140.67;;;16.33;;
4274;SDS011;2151;50.988;11.068;2023-04-28T05:41:11;151.00;;;15.20;;
4274;SDS011;2151;50.988;11.068;2023-04-28T05:43:38;140.30;;;16.07;;
4274;SDS011;2151;50.988;11.068;2023-04-28T05:46:04;147.73;;;14.67;;
4274;SDS011;2151;50.988;11.068;2023-04-28T05:48:44;144.00;;;14.93;;
4274;SDS011;2151;50.988;11.068;2023-04-28T05:51:10;138.97;;;15.10;;
4274;SDS011;2151;50.988;11.068;2023-04-28T05:53:37;137.83;;;15.80;;
4274;SDS011;2151;50.988;11.068;2023-04-28T05:56:03;145.00;;;14.03;;
4274;SDS011;2151;50.988;11.068;2023-04-28T05:58:30;138.37;;;14.93;;
4274;SDS011;2151;50.988;11.068;2023-04-28T06:00:57;133.80;;;14.40;;
4274;SDS011;2151;50.988;11.068;2023-04-28T06:03:23;138.07;;;14.80;;
4274;SDS011;2151;50.988;11.068;2023-04-28T06:05:50;134.93;;;15.63;;
4274;SDS011;2151;50.988;11.068;2023-04-28T06:08:17;141.97;;;15.67;;
4274;SDS011;2151;50.988;11.068;2023-04-28T06:10:44;137.87;;;15.10;;
4274;SDS011;2151;50.988;11.068;2023-04-28T06:13:10;137.97;;;15.80;;
4274;SDS011;2151;50.988;11.068;2023-04-28T06:15:39;139.00;;;15.87;;
4274;SDS011;2151;50.988;11.068;2023-04-28T06:18:06;142.10;;;17.40;;
4274;SDS011;2151;50.988;11.068;2023-04-28T06:20:34;136.27;;;15.00;;
4274;SDS011;2151;50.988;11.068;2023-04-28T06:23:01;135.00;;;14.80;;
4274;SDS011;2151;50.988;11.068;2023-04-28T06:25:28;138.10;;;14.80;;
4274;SDS011;2151;50.988;11.068;2023-04-28T06:27:55;146.30;;;16.40;;
4274;SDS011;2151;50.988;11.068;2023-04-28T06:30:21;143.83;;;15.80;;
4274;SDS011;2151;50.988;11.068;2023-04-28T06:32:48;139.87;;;15.60;;
4274;SDS011;2151;50.988;11.068;2023-04-28T06:35:15;136.63;;;15.60;;
4274;SDS011;2151;50.988;11.068;2023-04-28T06:37:41;138.50;;;16.20;;
4274;SDS011;2151;50.988;11.068;2023-04-28T06:40:08;138.47;;;17.00;;
4274;SDS011;2151;50.988;11.068;2023-04-28T06:42:35;140.20;;;15.77;;
4274;SDS011;2151;50.988;11.068;2023-04-28T06:45:01;137.83;;;15.93;;
4274;SDS011;2151;50.988;11.068;2023-04-28T06:47:28;136.67;;;16.27;;
4274;SDS011;2151;50.988;11.068;2023-04-28T06:49:54;141.23;;;15.90;;
4274;SDS011;2151;50.988;11.068;2023-04-28T06:52:21;140.63;;;16.23;;
4274;SDS011;2151;50.988;11.068;2023-04-28T06:54:55;140.20;;;16.10;;
4274;SDS011;2151;50.988;11.068;2023-04-28T06:57:21;135.67;;;15.00;;
4274;SDS011;2151;50.988;11.068;2023-04-28T06:59:48;137.70;;;16.30;;
4274;SDS011;2151;50.988;11.068;2023-04-28T07:02:14;143.10;;;16.70;;
4274;SDS011;2151;50.988;11.068;2023-04-28T07:04:41;138.97;;;15.83;;
4274;SDS011;2151;50.988;11.068;2023-04-28T07:07:07;146.67;;;15.37;;
4274;SDS011;2151;50.988;11.068;2023-04-28T07:09:35;142.23;;;16.47;;
4274;SDS011;2151;50.988;11.068;2023-04-28T07:12:02;137.13;;;16.13;;
4274;SDS011;2151;50.988;11.068;2023-04-28T07:14:29;137.00;;;16.03;;
4274;SDS011;2151;50.988;11.068;2023-04-28T07:16:55;138.77;;;16.60;;
4274;SDS011;2151;50.988;11.068;2023-04-28T07:19:22;134.80;;;16.10;;
4274;SDS011;2151;50.988;11.068;2023-04-28T07:21:48;146.10;;;16.37;;
4274;SDS011;2151;50.988;11.068;2023-04-28T07:24:14;135.83;;;15.10;;
4274;SDS011;2151;50.988;11.068;2023-04-28T07:26:41;139.73;;;16.10;;
4274;SDS011;2151;50.988;11.068;2023-04-28T07:29:07;140.20;;;15.57;;
4274;SDS011;2151;50.988;11.068;2023-04-28T07:31:34;143.63;;;16.73;;
4274;SDS011;2151;50.988;11.068;2023-04-28T07:34:00;140.80;;;16.60;;
4274;SDS011;2151;50.988;11.068;2023-04-28T07:36:27;135.87;;;15.87;;
4274;SDS011;2151;50.988;11.068;2023-04-28T07:38:53;139.13;;;17.13;;
4274;SDS011;2151;50.988;11.068;2023-04-28T07:41:20;136.47;;;16.00;;
4274;SDS011;2151;50.988;11.068;2023-04-28T07:43:46;136.80;;;15.10;;
4274;SDS011;2151;50.988;11.068;2023-04-28T07:46:13;138.27;;;16.40;;
4274;SDS011;2151;50.988;11.068;2023-04-28T07:48:39;135.73;;;15.70;;
4274;SDS011;2151;50.988;11.068;2023-04-28T07:51:06;139.47;;;16.90;;
4274;SDS011;2151;50.988;11.068;2023-04-28T07:53:33;142.50;;;16.17;;
4274;SDS011;2151;50.988;11.068;2023-04-28T07:55:59;136.80;;;17.50;;
4274;SDS011;2151;50.988;11.068;2023-04-28T07:58:26;136.77;;;15.97;;
4274;SDS011;2151;50.988;11.068;2023-04-28T08:00:52;137.77;;;16.43;;
4274;SDS011;2151;50.988;11.068;2023-04-28T08:03:19;139.37;;;16.20;;
4274;SDS011;2151;50.988;11.068;2023-04-28T08:05:46;137.57;;;16.23;;
4274;SDS011;2151;50.988;11.068;2023-04-28T08:08:13;136.33;;;16.17;;
4274;SDS011;2151;50.988;11.068;2023-04-28T08:10:39;141.37;;;17.40;;
4274;SDS011;2151;50.988;11.068;2023-04-28T08:13:07;142.00;;;18.17;;
4274;SDS011;2151;50.988;11.068;2023-04-28T08:15:33;138.60;;;16.97;;
4274;SDS011;2151;50.988;11.068;2023-04-28T08:18:00;142.43;;;18.77;;
4274;SDS011;2151;50.988;11.068;2023-04-28T08:20:27;147.53;;;17.10;;
4274;SDS011;2151;50.988;11.068;2023-04-28T08:22:54;139.53;;;17.63;;
4274;SDS011;2151;50.988;11.068;2023-04-28T08:25:21;142.50;;;17.13;;
4274;SDS011;2151;50.988;11.068;2023-04-28T08:27:47;139.37;;;17.37;;
4274;SDS011;2151;50.988;11.068;2023-04-28T08:30:14;141.67;;;18.07;;
4274;SDS011;2151;50.988;11.068;2023-04-28T08:32:40;146.90;;;17.27;;
4274;SDS011;2151;50.988;11.068;2023-04-28T08:35:07;141.00;;;16.47;;
4274;SDS011;2151;50.988;11.068;2023-04-28T08:37:33;138.77;;;16.80;;
4274;SDS011;2151;50.988;11.068;2023-04-28T08:40:01;135.97;;;17.23;;
4274;SDS011;2151;50.988;11.068;2023-04-28T08:42:28;140.70;;;18.43;;
4274;SDS011;2151;50.988;11.068;2023-04-28T08:44:55;139.60;;;17.63;;
4274;SDS011;2151;50.988;11.068;2023-04-28T08:47:37;140.03;;;17.77;;
4274;SDS011;2151;50.988;11.068;2023-04-28T08:50:05;139.00;;;18.63;;
4274;SDS011;2151;50.988;11.068;2023-04-28T08:52:32;140.20;;;17.60;;
4274;SDS011;2151;50.988;11.068;2023-04-28T08:54:59;139.33;;;20.10;;
4274;SDS011;2151;50.988;11.068;2023-04-28T08:57:26;135.00;;;17.53;;
4274;SDS011;2151;50.988;11.068;2023-04-28T08:59:55;138.70;;;17.87;;
4274;SDS011;2151;50.988;11.068;2023-04-28T09:02:21;140.60;;;17.80;;
4274;SDS011;2151;50.988;11.068;2023-04-28T09:04:48;142.17;;;18.97;;
4274;SDS011;2151;50.988;11.068;2023-04-28T09:07:15;143.20;;;18.13;;
4274;SDS011;2151;50.988;11.068;2023-04-28T09:09:41;138.17;;;18.97;;
4274;SDS011;2151;50.988;11.068;2023-04-28T09:12:10;139.10;;;17.40;;
4274;SDS011;2151;50.988;11.068;2023-04-28T09:14:37;139.90;;;19.27;;
4274;SDS011;2151;50.988;11.068;2023-04-28T09:17:13;140.90;;;19.87;;
4274;SDS011;2151;50.988;11.068;2023-04-28T09:19:39;141.53;;;19.47;;
4274;SDS011;2151;50.988;11.068;2023-04-28T09:22:08;145.10;;;19.30;;
4274;SDS011;2151;50.988;11.068;2023-04-28T09:24:51;144.50;;;18.87;;
4274;SDS011;2151;50.988;11.068;2023-04-28T09:27:19;135.10;;;17.73;;
4274;SDS011;2151;50.988;11.068;2023-04-28T09:29:51;139.33;;;18.27;;
4274;SDS011;2151;50.988;11.068;2023-04-28T09:32:19;136.50;;;18.40;;
4274;SDS011;2151;50.988;11.068;2023-04-28T09:34:47;140.60;;;18.90;;
4274;SDS011;2151;50.988;11.068;2023-04-28T09:37:18;137.97;;;18.00;;
4274;SDS011;2151;50.988;11.068;2023-04-28T09:39:49;145.40;;;19.77;;
4274;SDS011;2151;50.988;11.068;2023-04-28T09:45:02;139.37;;;20.30;;
4274;SDS011;2151;50.988;11.068;2023-04-28T09:47:29;142.33;;;20.47;;
4274;SDS011;2151;50.988;11.068;2023-04-28T09:49:59;142.47;;;20.30;;
4274;SDS011;2151;50.988;11.068;2023-04-28T09:52:26;138.93;;;19.47;;
4274;SDS011;2151;50.988;11.068;2023-04-28T09:54:53;142.60;;;19.00;;
4274;SDS011;2151;50.988;11.068;2023-04-28T09:57:19;137.27;;;18.23;;
4274;SDS011;2151;50.988;11.068;2023-04-28T09:59:47;138.17;;;19.00;;
4274;SDS011;2151;50.988;11.068;2023-04-28T10:02:18;140.40;;;19.17;;
4274;SDS011;2151;50.988;11.068;2023-04-28T10:05:08;137.87;;;18.70;;
4274;SDS011;2151;50.988;11.068;2023-04-28T10:07:36;145.50;;;20.00;;
4274;SDS011;2151;50.988;11.068;2023-04-28T10:10:03;139.40;;;20.47;;
4274;SDS011;2151;50.988;11.068;2023-04-28T10:12:30;141.30;;;19.30;;
4274;SDS011;2151;50.988;11.068;2023-04-28T10:14:57;140.10;;;19.63;;
4274;SDS011;2151;50.988;11.068;2023-04-28T10:17:25;140.40;;;19.37;;
4274;SDS011;2151;50.988;11.068;2023-04-28T10:19:52;138.63;;;19.10;;
4274;SDS011;2151;50.988;11.068;2023-04-28T10:22:42;143.17;;;20.03;;
4274;SDS011;2151;50.988;11.068;2023-04-28T10:25:19;140.17;;;19.80;;
4274;SDS011;2151;50.988;11.068;2023-04-28T10:27:50;138.40;;;20.83;;
4274;SDS011;2151;50.988;11.068;2023-04-28T10:30:18;144.00;;;19.90;;
4274;SDS011;2151;50.988;11.068;2023-04-28T10:40:33;151.87;;;21.13;;
4274;SDS011;2151;50.988;11.068;2023-04-28T10:43:01;149.83;;;21.03;;
4274;SDS011;2151;50.988;11.068;2023-04-28T10:48:14;141.07;;;20.50;;
4274;SDS011;2151;50.988;11.068;2023-04-28T10:56:22;141.77;;;19.80;;
4274;SDS011;2151;50.988;11.068;2023-04-28T10:58:53;145.33;;;21.30;;
4274;SDS011;2151;50.988;11.068;2023-04-28T11:03:48;139.57;;;20.10;;
4274;SDS011;2151;50.988;11.068;2023-04-28T11:11:29;137.30;;;19.57;;
4274;SDS011;2151;50.988;11.068;2023-04-28T11:14:41;139.20;;;20.97;;
4274;SDS011;2151;50.988;11.068;2023-04-28T11:16:55;141.00;;;20.60;;
4274;SDS011;2151;50.988;11.068;2023-04-28T11:19:22;143.07;;;21.90;;
4274;SDS011;2151;50.988;11.068;2023-04-28T11:21:52;138.90;;;20.10;;
4274;SDS011;2151;50.988;11.068;2023-04-28T11:24:21;141.10;;;19.20;;
4274;SDS011;2151;50.988;11.068;2023-04-28T11:26:48;135.50;;;18.90;;
4274;SDS011;2151;50.988;11.068;2023-04-28T11:29:14;138.37;;;19.67;;
4274;SDS011;2151;50.988;11.068;2023-04-28T11:31:47;138.27;;;19.50;;
4274;SDS011;2151;50.988;11.068;2023-04-28T11:34:18;138.37;;;19.20;;
4274;SDS011;2151;50.988;11.068;2023-04-28T11:36:44;139.97;;;19.77;;
4274;SDS011;2151;50.988;11.068;2023-04-28T11:39:11;139.07;;;19.47;;
4274;SDS011;2151;50.988;11.068;2023-04-28T11:41:39;138.10;;;18.53;;
4274;SDS011;2151;50.988;11.068;2023-04-28T11:44:09;142.07;;;18.77;;
4274;SDS011;2151;50.988;11.068;2023-04-28T11:46:35;135.87;;;18.40;;
4274;SDS011;2151;50.988;11.068;2023-04-28T11:49:09;135.80;;;17.40;;
4274;SDS011;2151;50.988;11.068;2023-04-28T11:51:36;137.17;;;17.60;;
4274;SDS011;2151;50.988;11.068;2023-04-28T11:54:04;132.90;;;16.70;;
4274;SDS011;2151;50.988;11.068;2023-04-28T11:56:35;130.93;;;15.63;;
4274;SDS011;2151;50.988;11.068;2023-04-28T11:59:06;128.67;;;14.40;;
4274;SDS011;2151;50.988;11.068;2023-04-28T12:01:34;131.40;;;14.60;;
4274;SDS011;2151;50.988;11.068;2023-04-28T12:04:02;133.93;;;15.20;;
4274;SDS011;2151;50.988;11.068;2023-04-28T12:06:29;129.23;;;14.27;;
4274;SDS011;2151;50.988;11.068;2023-04-28T12:08:56;132.80;;;14.10;;
4274;SDS011;2151;50.988;11.068;2023-04-28T12:11:23;126.77;;;12.77;;
4274;SDS011;2151;50.988;11.068;2023-04-28T12:14:03;125.10;;;12.33;;
4274;SDS011;2151;50.988;11.068;2023-04-28T12:16:37;125.20;;;12.33;;
4274;SDS011;2151;50.988;11.068;2023-04-28T12:19:05;125.00;;;11.70;;
4274;SDS011;2151;50.988;11.068;2023-04-28T12:21:36;127.07;;;12.90;;
4274;SDS011;2151;50.988;11.068;2023-04-28T12:24:16;127.40;;;12.10;;
4274;SDS011;2151;50.988;11.068;2023-04-28T12:26:43;127.70;;;12.90;;
4274;SDS011;2151;50.988;11.068;2023-04-28T12:29:33;124.23;;;11.67;;
4274;SDS011;2151;50.988;11.068;2023-04-28T12:31:56;124.47;;;11.10;;
4274;SDS011;2151;50.988;11.068;2023-04-28T12:34:23;122.97;;;11.10;;
4274;SDS011;2151;50.988;11.068;2023-04-28T12:36:50;121.57;;;10.67;;
4274;SDS011;2151;50.988;11.068;2023-04-28T12:39:16;124.37;;;10.77;;
4274;SDS011;2151;50.988;11.068;2023-04-28T12:41:45;126.03;;;11.20;;
4274;SDS011;2151;50.988;11.068;2023-04-28T12:44:12;123.57;;;10.60;;
4274;SDS011;2151;50.988;11.068;2023-04-28T12:46:38;121.57;;;10.57;;
4274;SDS011;2151;50.988;11.068;2023-04-28T12:49:05;121.00;;;11.53;;
4274;SDS011;2151;50.988;11.068;2023-04-28T12:51:31;122.23;;;13.60;;
4274;SDS011;2151;50.988;11.068;2023-04-28T12:54:02;126.60;;;15.10;;
4274;SDS011;2151;50.988;11.068;2023-04-28T12:56:28;133.27;;;18.17;;
4274;SDS011;2151;50.988;11.068;2023-04-28T12:58:55;127.77;;;18.27;;
4274;SDS011;2151;50.988;11.068;2023-04-28T13:01:21;130.07;;;15.90;;
4274;SDS011;2151;50.988;11.068;2023-04-28T13:03:48;127.27;;;16.47;;
4274;SDS011;2151;50.988;11.068;2023-04-28T13:06:16;131.77;;;15.50;;
4274;SDS011;2151;50.988;11.068;2023-04-28T13:08:42;126.87;;;14.10;;
4274;SDS011;2151;50.988;11.068;2023-04-28T13:11:10;132.10;;;14.47;;
4274;SDS011;2151;50.988;11.068;2023-04-28T13:13:48;126.90;;;14.03;;
4274;SDS011;2151;50.988;11.068;2023-04-28T13:16:14;127.17;;;13.50;;
4274;SDS011;2151;50.988;11.068;2023-04-28T13:18:41;127.63;;;14.10;;
4274;SDS011;2151;50.988;11.068;2023-04-28T13:21:07;127.50;;;14.77;;
4274;SDS011;2151;50.988;11.068;2023-04-28T13:23:33;132.10;;;14.83;;
4274;SDS011;2151;50.988;11.068;2023-04-28T13:26:00;126.47;;;15.20;;
4274;SDS011;2151;50.988;11.068;2023-04-28T13:28:27;128.23;;;16.83;;
4274;SDS011;2151;50.988;11.068;2023-04-28T13:30:54;126.37;;;15.60;;
4274;SDS011;2151;50.988;11.068;2023-04-28T13:33:20;127.80;;;16.77;;
4274;SDS011;2151;50.988;11.068;2023-04-28T13:35:47;128.97;;;17.97;;
4274;SDS011;2151;50.988;11.068;2023-04-28T13:38:13;129.77;;;17.90;;
4274;SDS011;2151;50.988;11.068;2023-04-28T13:40:40;129.87;;;17.80;;
4274;SDS011;2151;50.988;11.068;2023-04-28T13:43:07;128.70;;;18.70;;
4274;SDS011;2151;50.988;11.068;2023-04-28T13:45:33;127.97;;;18.60;;
4274;SDS011;2151;50.988;11.068;2023-04-28T13:48:00;127.47;;;19.30;;
4274;SDS011;2151;50.988;11.068;2023-04-28T13:50:27;127.97;;;18.20;;
4274;SDS011;2151;50.988;11.068;2023-04-28T13:52:53;126.87;;;18.07;;
4274;SDS011;2151;50.988;11.068;2023-04-28T13:55:19;126.27;;;18.33;;
4274;SDS011;2151;50.988;11.068;2023-04-28T13:57:53;126.67;;;18.30;;
4274;SDS011;2151;50.988;11.068;2023-04-28T14:00:19;127.50;;;17.57;;
4274;SDS011;2151;50.988;11.068;2023-04-28T14:02:46;126.93;;;18.00;;
4274;SDS011;2151;50.988;11.068;2023-04-28T14:05:14;126.70;;;17.20;;
4274;SDS011;2151;50.988;11.068;2023-04-28T14:07:44;127.93;;;17.40;;
4274;SDS011;2151;50.988;11.068;2023-04-28T14:10:11;125.63;;;17.20;;
4274;SDS011;2151;50.988;11.068;2023-04-28T14:12:37;128.83;;;17.70;;
4274;SDS011;2151;50.988;11.068;2023-04-28T14:15:07;126.30;;;16.60;;
4274;SDS011;2151;50.988;11.068;2023-04-28T14:17:33;125.77;;;16.80;;
4274;SDS011;2151;50.988;11.068;2023-04-28T14:20:01;125.57;;;17.67;;
4274;SDS011;2151;50.988;11.068;2023-04-28T14:22:28;124.70;;;17.30;;
4274;SDS011;2151;50.988;11.068;2023-04-28T14:24:55;124.90;;;17.30;;
4274;SDS011;2151;50.988;11.068;2023-04-28T14:27:21;126.73;;;18.20;;
4274;SDS011;2151;50.988;11.068;2023-04-28T14:29:48;126.70;;;17.80;;
4274;SDS011;2151;50.988;11.068;2023-04-28T14:32:15;130.77;;;16.77;;
4274;SDS011;2151;50.988;11.068;2023-04-28T14:34:46;128.57;;;16.17;;
4274;SDS011;2151;50.988;11.068;2023-04-28T14:37:13;132.97;;;15.70;;
4274;SDS011;2151;50.988;11.068;2023-04-28T14:39:40;126.90;;;13.97;;
4274;SDS011;2151;50.988;11.068;2023-04-28T14:42:07;128.47;;;14.50;;
4274;SDS011;2151;50.988;11.068;2023-04-28T14:44:33;128.67;;;15.07;;
4274;SDS011;2151;50.988;11.068;2023-04-28T14:47:01;128.00;;;14.70;;
4274;SDS011;2151;50.988;11.068;2023-04-28T14:49:27;128.27;;;15.13;;